Time;durP1;ratioP1;P1;durP2;ratioP2;P2;SDS_P1;SDS_P2;PMS_P1;PMS_P2;Temp;Humidity;BMP_temperature;BMP_pressure;BME280_temperature;BME280_humidity;BME280_pressure;Samples;Min_cycle;Max_cycle;Signal;HPM_P1;HPM_P2
2021/03/09 00:00:56;;;;;;;23.58;12.43;;;;;;;6.65;59.88;100151.78;4995855;28;20081;-83
2021/03/09 00:03:22;;;;;;;23.65;13.73;;;;;;;6.64;60.17;100160.56;4995812;28;20497;-83
2021/03/09 00:05:49;;;;;;;25.05;12.93;;;;;;;6.62;60.35;100150.13;5013066;28;20082;-83
2021/03/09 00:08:15;;;;;;;24.27;12.98;;;;;;;6.62;60.02;100152.75;5015702;28;20058;-83
2021/03/09 00:10:41;;;;;;;30.33;14.48;;;;;;;6.61;60.45;100147.56;5015437;28;20046;-83
2021/03/09 00:13:07;;;;;;;31.92;15.75;;;;;;;6.59;60.65;100144.16;4997791;28;20547;-83
2021/03/09 00:15:33;;;;;;;29.55;15.50;;;;;;;6.57;60.54;100146.81;5014407;28;20050;-83
2021/03/09 00:17:59;;;;;;;37.42;18.00;;;;;;;6.54;60.63;100143.47;5015393;28;20056;-83
2021/03/09 00:20:26;;;;;;;32.30;16.95;;;;;;;6.52;60.68;100148.75;5015208;28;20403;-83
2021/03/09 00:22:52;;;;;;;33.35;18.33;;;;;;;6.49;60.73;100146.22;5015436;28;20060;-83
2021/03/09 00:25:18;;;;;;;33.08;17.95;;;;;;;6.47;60.94;100145.44;5001688;28;20061;-83
2021/03/09 00:27:44;;;;;;;31.88;18.15;;;;;;;6.45;61.14;100142.88;4995768;28;20051;-83
2021/03/09 00:30:11;;;;;;;38.42;19.20;;;;;;;6.43;61.29;100138.59;4995677;28;20054;-83
2021/03/09 00:32:37;;;;;;;49.90;24.85;;;;;;;6.39;61.45;100133.47;4978043;28;20050;-83
2021/03/09 00:35:03;;;;;;;42.20;21.30;;;;;;;6.37;61.15;100137.91;5005820;28;20104;-83
2021/03/09 00:37:29;;;;;;;42.13;22.17;;;;;;;6.36;61.37;100140.56;4997645;28;20127;-83
2021/03/09 00:39:56;;;;;;;49.60;24.58;;;;;;;6.34;61.45;100132.78;5015682;28;20037;-83
2021/03/09 00:42:22;;;;;;;55.15;26.98;;;;;;;6.31;61.91;100135.47;5014582;28;20492;-84
2021/03/09 00:44:48;;;;;;;58.55;31.20;;;;;;;6.30;61.88;100127.69;5005558;28;20504;-83
2021/03/09 00:47:14;;;;;;;53.78;27.67;;;;;;;6.27;61.71;100128.66;4995359;28;20483;-83
2021/03/09 00:49:40;;;;;;;68.05;32.50;;;;;;;6.24;62.42;100134.84;4995235;28;20046;-83
2021/03/09 00:52:07;;;;;;;60.10;29.02;;;;;;;6.20;61.88;100130.59;4995033;28;20505;-84
2021/03/09 00:54:37;;;;;;;58.83;29.50;;;;;;;6.17;62.02;100122.03;5001323;28;20076;-84
2021/03/09 00:57:03;;;;;;;62.10;29.75;;;;;;;6.14;62.39;100122.97;5014878;28;20054;-84
2021/03/09 00:59:29;;;;;;;70.25;35.28;;;;;;;6.11;62.60;100118.72;5014474;28;20104;-84
2021/03/09 01:01:55;;;;;;;69.00;32.38;;;;;;;6.10;62.41;100113.53;4997186;28;20057;-84
2021/03/09 01:04:21;;;;;;;71.32;33.53;;;;;;;6.07;62.64;100108.38;5013145;28;20046;-83
2021/03/09 01:06:47;;;;;;;69.57;32.03;;;;;;;6.06;62.58;100111.91;5014568;28;20093;-84
2021/03/09 06:29:00;;;;;;;46.75;26.13;;;;;;;4.30;69.14;99829.31;5029952;28;20046;-88
2021/03/09 06:32:49;;;;;;;44.22;26.73;;;;;;;4.25;71.05;99823.38;4958068;28;20063;-87
2021/03/09 06:35:55;;;;;;;44.58;26.02;;;;;;;4.27;69.42;99825.94;4902065;29;20144;-87
2021/03/09 06:39:12;;;;;;;43.33;24.30;;;;;;;4.21;71.08;99818.31;4864813;29;20424;-87
2021/03/09 06:42:39;;;;;;;42.30;23.35;;;;;;;4.20;69.37;99825.28;4893599;29;20114;-87
2021/03/09 06:49:39;;;;;;;39.63;22.15;;;;;;;4.16;69.27;99824.50;4928152;29;20143;-87
2021/03/09 07:00:48;;;;;;;;;;;;;;;;;;;;;
2021/03/09 07:04:29;;;;;;;39.83;22.73;;;;;;;4.08;70.28;99821.28;4857821;29;20044;-87
2021/03/09 07:11:04;;;;;;;37.67;22.20;;;;;;;4.07;67.76;99813.53;5094677;23;20187;-87
2021/03/09 07:13:30;;;;;;;36.75;22.20;;;;;;;4.06;68.24;99824.81;5038531;28;20049;-87
2021/03/09 07:15:57;;;;;;;36.20;22.30;;;;;;;4.06;68.11;99822.22;5038102;28;20053;-87
2021/03/09 07:18:26;;;;;;;37.80;22.85;;;;;;;4.06;68.80;99827.41;5038798;28;20059;-88
2021/03/09 07:20:56;;;;;;;32.07;21.17;;;;;;;4.09;68.36;99830.81;5038979;28;20045;-87
2021/03/09 07:23:24;;;;;;;35.67;21.33;;;;;;;4.09;68.73;99824.72;5038563;28;20055;-87
2021/03/09 07:25:59;;;;;;;34.75;20.88;;;;;;;4.07;69.46;99823.94;5033171;28;20056;-87
2021/03/09 07:28:35;;;;;;;34.95;21.48;;;;;;;4.07;69.58;99823.94;5036151;28;20056;-87
2021/03/09 07:31:04;;;;;;;34.95;20.55;;;;;;;4.06;68.53;99824.81;5036341;28;20412;-88
2021/03/09 07:33:32;;;;;;;31.63;20.20;;;;;;;4.04;68.20;99830.94;5035810;28;20045;-88
2021/03/09 07:35:59;;;;;;;30.63;19.05;;;;;;;4.04;68.26;99817.91;5036294;28;20049;-88
2021/03/09 07:38:25;;;;;;;35.30;19.98;;;;;;;4.04;68.03;99825.72;5035786;28;20049;-88
2021/03/09 07:40:51;;;;;;;34.28;19.08;;;;;;;4.03;68.24;99825.75;5018412;28;20056;-88
2021/03/09 07:43:17;;;;;;;34.13;19.48;;;;;;;4.01;67.93;99824.97;5018433;28;20052;-88
2021/03/09 07:45:44;;;;;;;34.25;20.73;;;;;;;3.99;68.52;99825.00;5035257;28;20049;-87
2021/03/09 07:48:12;;;;;;;34.15;21.02;;;;;;;3.97;68.68;99832.03;5055583;28;20072;-89
2021/03/09 07:50:44;;;;;;;33.38;20.42;;;;;;;3.96;68.27;99824.25;5036030;28;20052;-87
2021/03/09 07:53:17;;;;;;;32.60;19.63;;;;;;;3.95;69.13;99831.19;5055668;28;20099;-88
2021/03/09 07:55:43;;;;;;;;;;;;;;;3.95;70.91;99828.59;5037849;28;20036;-88
2021/03/09 07:58:24;;;;;;;27.90;17.40;;;;;;;3.95;69.59;99825.13;5049402;28;19917;-89
2021/03/09 08:01:04;;;;;;;30.45;19.25;;;;;;;3.92;69.80;99826.06;5033991;28;20134;-88
2021/03/09 08:03:34;;;;;;;32.20;19.55;;;;;;;3.91;68.35;99822.63;5035381;28;20045;-87
2021/03/09 08:06:05;;;;;;;32.20;19.80;;;;;;;3.88;69.73;99829.66;5035797;28;20040;-88
2021/03/09 08:08:50;;;;;;;30.92;18.30;;;;;;;3.87;69.21;99830.56;5044184;28;20055;-88
2021/03/09 08:11:18;;;;;;;30.73;18.00;;;;;;;3.86;69.22;99829.72;5037454;28;20032;-88
2021/03/09 08:13:45;;;;;;;30.90;18.90;;;;;;;3.86;68.68;99827.13;5035642;28;20123;-88
2021/03/09 08:16:20;;;;;;;30.52;18.92;;;;;;;3.86;70.13;99821.03;5055306;28;20103;-88
2021/03/09 08:18:51;;;;;;;29.55;18.27;;;;;;;3.86;69.53;99816.69;5025615;28;20077;-88
2021/03/09 08:21:18;;;;;;;31.20;19.05;;;;;;;3.91;68.84;99829.56;5017385;28;20053;-88
2021/03/09 08:23:44;;;;;;;28.52;18.35;;;;;;;3.91;68.97;99821.75;5016652;28;20514;-89
2021/03/09 08:26:13;;;;;;;31.17;19.08;;;;;;;3.91;69.67;99825.22;5037769;28;20041;-88
2021/03/09 08:28:51;;;;;;;30.85;19.95;;;;;;;3.95;69.14;99825.13;5038735;28;20514;-88
2021/03/09 08:31:17;;;;;;;29.00;18.40;;;;;;;3.97;69.24;99831.16;5037115;28;20052;-88
2021/03/09 08:33:46;;;;;;;28.38;17.52;;;;;;;3.98;68.92;99825.91;5036569;28;20495;-87
2021/03/09 08:36:24;;;;;;;26.60;17.98;;;;;;;3.99;70.38;99826.75;5032755;28;20053;-87
2021/03/09 08:39:03;;;;;;;29.52;17.98;;;;;;;4.01;70.81;99831.00;5016760;28;20549;-89
2021/03/09 08:41:44;;;;;;;31.58;19.23;;;;;;;4.05;70.34;99826.59;5016686;28;20045;-89
2021/03/09 08:44:16;;;;;;;26.88;18.35;;;;;;;4.08;69.95;99823.91;5016461;28;20053;-88
2021/03/09 08:47:03;;;;;;;28.15;18.08;;;;;;;4.08;71.14;99826.50;5022129;28;20059;-89
2021/03/09 08:49:51;;;;;;;29.88;18.08;;;;;;;4.12;71.11;99824.66;5025352;28;20064;-89
2021/03/09 08:52:17;;;;;;;27.90;16.85;;;;;;;4.16;69.53;99821.91;5017452;28;20060;-89
2021/03/09 08:54:48;;;;;;;25.15;15.75;;;;;;;4.18;69.91;99819.25;5034406;28;20049;-89
2021/03/09 08:57:18;;;;;;;27.48;17.95;;;;;;;4.20;70.71;99825.28;5017516;28;20077;-89
2021/03/09 08:59:50;;;;;;;24.55;16.50;;;;;;;4.22;71.00;99818.25;5016861;28;20041;-89
2021/03/09 09:02:23;;;;;;;26.55;17.75;;;;;;;4.26;70.76;99819.03;5035456;28;20498;-88
2021/03/09 09:05:05;;;;;;;22.98;15.93;;;;;;;4.27;71.87;99821.56;5036176;28;20048;-90
2021/03/09 09:07:37;;;;;;;26.33;16.43;;;;;;;4.32;70.89;99821.44;5037048;28;20136;-90
2021/03/09 09:10:13;;;;;;;24.60;16.23;;;;;;;4.34;70.94;99816.19;5035466;28;20494;-88
2021/03/09 09:12:44;;;;;;;22.75;14.93;;;;;;;4.37;70.57;99813.50;5036421;28;20049;-88
2021/03/09 09:15:32;;;;;;;25.55;18.45;;;;;;;4.37;72.75;99808.28;5035378;28;20055;-88
2021/03/09 09:18:03;;;;;;;26.10;17.70;;;;;;;4.44;70.64;99815.00;5053731;28;20053;-89
2021/03/09 09:20:44;;;;;;;27.67;17.55;;;;;;;4.47;71.66;99816.66;5040377;28;20050;-88
2021/03/09 09:23:27;;;;;;;27.13;19.08;;;;;;;4.49;72.33;99820.09;5033988;28;20054;-89
2021/03/09 09:26:02;;;;;;;23.77;16.83;;;;;;;4.55;71.22;99814.66;5015404;28;20491;-88
2021/03/09 09:28:29;;;;;;;25.70;19.15;;;;;;;4.60;70.92;99811.94;5015917;28;20484;-89
2021/03/09 09:31:15;;;;;;;28.00;19.67;;;;;;;4.61;71.80;99803.22;5030284;28;20590;-88
2021/03/09 09:33:51;;;;;;;27.13;18.35;;;;;;;4.66;71.40;99814.34;5036379;28;20053;-90
2021/03/09 09:36:22;;;;;;;23.90;16.92;;;;;;;4.71;71.28;99809.81;5035989;28;20049;-89
2021/03/09 09:38:52;;;;;;;25.67;17.85;;;;;;;4.74;71.45;99808.91;5036032;28;20056;-90
2021/03/09 09:41:20;;;;;;;28.33;18.48;;;;;;;4.78;71.11;99807.88;5033212;28;20045;-89
2021/03/09 09:43:46;;;;;;;24.60;16.95;;;;;;;4.79;71.20;99807.81;5036105;28;20392;-90
2021/03/09 09:46:22;;;;;;;23.58;15.55;;;;;;;4.81;71.93;99816.47;5036176;28;20081;-89
2021/03/09 09:48:49;;;;;;;26.45;17.52;;;;;;;4.86;71.26;99812.88;5035945;28;20040;-89
2021/03/09 09:51:19;;;;;;;25.85;16.77;;;;;;;4.89;71.29;99810.13;5033251;28;20072;-90
2021/03/09 09:53:48;;;;;;;25.00;17.92;;;;;;;4.92;71.37;99813.50;5053553;28;20049;-90
2021/03/09 09:56:17;;;;;;;26.73;18.35;;;;;;;4.96;71.79;99811.66;5053368;28;20056;-90
2021/03/09 09:58:58;;;;;;;26.25;18.42;;;;;;;4.96;72.94;99814.25;5035940;28;20053;-90
2021/03/09 10:01:35;;;;;;;21.15;15.23;;;;;;;5.02;72.41;99813.22;5019264;28;20068;-90
2021/03/09 10:04:04;;;;;;;29.45;17.90;;;;;;;5.07;71.58;99817.38;5016089;28;20053;-90
2021/03/09 10:06:42;;;;;;;21.90;15.45;;;;;;;5.09;72.05;99818.16;5016363;28;20080;-90
2021/03/09 10:09:19;;;;;;;25.73;16.67;;;;;;;5.14;72.18;99814.53;5016121;28;20075;-90
2021/03/09 10:11:53;;;;;;;23.90;15.88;;;;;;;5.18;72.15;99814.41;5016005;28;20056;-90
2021/03/09 10:14:25;;;;;;;24.02;16.42;;;;;;;5.23;71.89;99811.63;5030881;28;20071;-90
2021/03/09 10:16:52;;;;;;;23.83;16.63;;;;;;;5.27;71.68;99810.63;5035859;28;20060;-90
2021/03/09 10:19:21;;;;;;;21.23;15.27;;;;;;;5.31;71.77;99814.00;5035792;28;20057;-91
2021/03/09 10:21:50;;;;;;;21.80;15.45;;;;;;;5.35;71.70;99807.75;5035319;28;20045;-90
2021/03/09 10:28:06;;;;;;;22.10;15.55;;;;;;;5.46;72.26;99823.06;5053175;28;20411;-92
2021/03/09 10:30:40;;;;;;;25.52;16.65;;;;;;;5.51;72.32;99813.28;5035535;28;20053;-90
2021/03/09 10:33:11;;;;;;;25.70;15.70;;;;;;;5.56;71.99;99818.34;5035874;28;20072;-91
2021/03/09 10:36:14;;;;;;;28.17;17.92;;;;;;;5.58;72.97;99813.94;5035805;28;20541;-90
2021/03/09 10:38:41;;;;;;;25.85;15.93;;;;;;;5.66;71.69;99811.03;5057880;28;20053;-91
2021/03/09 10:41:24;;;;;;;35.97;15.65;;;;;;;5.66;72.53;99808.44;5038952;28;20040;-91
2021/03/09 10:43:50;;;;;;;;;;;;;;;5.73;72.39;99809.91;5039483;28;20049;-91
2021/03/09 10:46:19;;;;;;;30.13;16.27;;;;;;;5.79;71.68;99816.69;5039150;28;20003;-92
2021/03/09 10:48:45;;;;;;;23.27;15.27;;;;;;;5.81;71.71;99813.13;5039835;28;20056;-91
2021/03/09 10:51:21;;;;;;;30.98;15.57;;;;;;;5.83;72.59;99816.50;5039015;28;20051;-91
2021/03/09 10:53:48;;;;;;;21.63;14.88;;;;;;;5.89;72.15;99811.97;5039140;28;20049;-91
2021/03/09 10:56:14;;;;;;;23.65;16.58;;;;;;;5.93;72.15;99816.16;5039919;28;20457;-91
2021/03/09 10:58:44;;;;;;;22.65;15.38;;;;;;;5.98;72.04;99811.66;5038826;28;20052;-90
2021/03/09 11:01:10;;;;;;;23.17;14.95;;;;;;;6.02;72.21;99813.22;5038674;28;20417;-91
2021/03/09 11:03:37;;;;;;;20.58;15.25;;;;;;;6.08;72.09;99817.38;5039504;28;20060;-91
2021/03/09 11:06:08;;;;;;;20.52;14.43;;;;;;;6.15;71.99;99821.50;5040056;28;20390;-91
2021/03/09 11:08:34;;;;;;;22.13;16.10;;;;;;;6.19;71.88;99817.00;5039677;28;20103;-91
2021/03/09 11:11:01;;;;;;;19.58;14.85;;;;;;;6.24;72.09;99817.66;5038793;28;20073;-90
2021/03/09 11:13:27;;;;;;;23.75;15.98;;;;;;;6.27;71.51;99816.72;5038576;28;20045;-91
2021/03/09 11:15:53;;;;;;;23.42;15.27;;;;;;;6.29;71.67;99817.50;5038963;28;20087;-91
2021/03/09 11:18:20;;;;;;;21.23;14.93;;;;;;;6.31;71.50;99821.75;5038850;28;20053;-91
2021/03/09 11:20:46;;;;;;;21.88;14.93;;;;;;;6.34;71.54;99815.56;5038477;28;20045;-91
2021/03/09 11:23:12;;;;;;;20.58;14.45;;;;;;;6.36;71.73;99818.97;5038254;28;20502;-91
2021/03/09 11:25:39;;;;;;;22.48;15.35;;;;;;;6.39;71.86;99819.69;5038450;28;20051;-91
2021/03/09 11:28:05;;;;;;;25.00;16.95;;;;;;;6.42;71.74;99818.72;5038587;28;20411;-91
2021/03/09 11:30:32;;;;;;;25.60;16.42;;;;;;;6.46;71.87;99817.69;5038224;28;20049;-91
2021/03/09 11:32:58;;;;;;;35.25;16.50;;;;;;;6.48;71.48;99817.63;5038234;28;20052;-91
2021/03/09 11:35:25;;;;;;;37.78;16.67;;;;;;;6.52;72.04;99819.22;5038164;28;20085;-91
2021/03/09 11:37:52;;;;;;;31.13;17.02;;;;;;;6.53;71.73;99818.31;5038392;28;20103;-91
2021/03/09 11:40:18;;;;;;;30.48;16.88;;;;;;;6.56;71.83;99812.97;5038151;28;20049;-91
2021/03/09 11:42:45;;;;;;;25.30;16.63;;;;;;;6.60;71.67;99825.00;5038367;28;20075;-91
2021/03/09 11:45:12;;;;;;;35.28;17.92;;;;;;;6.63;72.09;99814.44;5037771;28;20045;-91
2021/03/09 11:47:38;;;;;;;35.58;18.55;;;;;;;6.67;71.78;99814.28;5038089;28;20057;-92
2021/03/09 11:50:06;;;;;;;75.30;19.02;;;;;;;6.68;71.78;99811.63;5038236;28;20132;-91
2021/03/09 11:52:34;;;;;;;62.30;17.63;;;;;;;6.70;71.42;99809.81;5038469;28;20132;-91
2021/03/09 11:55:02;;;;;;;72.07;18.20;;;;;;;6.72;71.75;99815.81;5037858;28;20048;-90
2021/03/09 11:57:28;;;;;;;63.72;21.27;;;;;;;6.72;71.71;99814.94;5037857;28;20057;-91
2021/03/09 11:59:55;;;;;;;63.63;18.30;;;;;;;6.73;71.59;99816.69;5037988;28;20080;-90
2021/03/09 12:02:21;;;;;;;69.80;20.67;;;;;;;6.75;71.80;99809.59;5037835;28;20053;-90
2021/03/09 12:04:48;;;;;;;41.58;19.23;;;;;;;6.77;71.79;99811.25;5038262;28;20616;-91
2021/03/09 12:07:14;;;;;;;38.97;18.35;;;;;;;6.80;72.16;99805.03;5038206;28;20063;-91
2021/03/09 12:09:40;;;;;;;43.50;19.85;;;;;;;6.83;71.85;99807.53;5037331;28;20144;-88
2021/03/09 12:12:07;;;;;;;66.97;19.58;;;;;;;6.86;72.31;99803.94;5037654;28;20133;-89
2021/03/09 12:14:33;;;;;;;50.22;19.55;;;;;;;6.89;72.26;99801.19;5051341;28;20060;-89
2021/03/09 12:17:01;;;;;;;30.73;18.35;;;;;;;6.92;72.25;99803.69;5035141;28;20050;-89
2021/03/09 12:19:28;;;;;;;77.03;19.90;;;;;;;6.96;72.17;99804.41;5017460;28;20127;-89
2021/03/09 12:21:55;;;;;;;48.25;19.92;;;;;;;6.98;72.18;99800.81;5034686;28;20068;-89
2021/03/09 12:24:21;;;;;;;84.10;23.00;;;;;;;7.00;72.19;99795.53;5017658;28;20566;-89
2021/03/09 12:26:47;;;;;;;50.30;20.27;;;;;;;7.03;72.43;99787.56;5017398;28;20055;-88
2021/03/09 12:29:14;;;;;;;51.92;20.13;;;;;;;7.06;72.10;99782.16;5017452;28;20508;-89
2021/03/09 12:31:40;;;;;;;29.40;19.15;;;;;;;7.09;72.24;99795.13;5017322;28;20041;-89
2021/03/09 12:34:07;;;;;;;71.28;19.45;;;;;;;7.13;72.64;99788.84;5016893;28;20507;-88
2021/03/09 12:36:33;;;;;;;35.72;17.83;;;;;;;7.16;72.57;99786.13;5019772;28;20049;-89
2021/03/09 12:38:59;;;;;;;35.47;18.73;;;;;;;7.21;72.18;99787.69;5017249;28;20084;-87
2021/03/09 12:41:26;;;;;;;27.38;18.45;;;;;;;7.24;72.62;99790.16;5016928;28;20045;-89
2021/03/09 12:43:52;;;;;;;47.72;17.80;;;;;;;7.27;72.43;99787.41;5016976;28;20045;-89
2021/03/09 12:46:18;;;;;;;112.68;20.55;;;;;;;7.30;72.57;99788.13;5034485;28;20079;-89
2021/03/09 12:48:45;;;;;;;99.53;20.85;;;;;;;7.34;72.23;99777.53;5034421;28;20072;-89
2021/03/09 12:51:12;;;;;;;84.70;19.13;;;;;;;7.36;72.26;99779.16;5026516;28;20048;-89
2021/03/09 12:53:38;;;;;;;82.55;18.35;;;;;;;7.38;72.09;99771.25;5036583;28;20088;-90
2021/03/09 12:56:12;;;;;;;63.53;17.98;;;;;;;7.39;72.29;99772.94;5037902;28;20124;-89
2021/03/09 12:58:48;;;;;;;36.15;18.13;;;;;;;7.40;72.06;99770.25;5038103;28;20056;-87
2021/03/09 13:01:15;;;;;;;26.83;17.17;;;;;;;7.44;72.68;99770.97;5033408;28;20060;-87
2021/03/09 13:03:41;;;;;;;26.42;16.48;;;;;;;7.47;72.38;99777.88;5035590;28;20542;-87
2021/03/09 13:06:08;;;;;;;25.10;16.63;;;;;;;7.48;72.58;99775.16;5036905;28;20056;-87
2021/03/09 13:08:34;;;;;;;21.65;14.23;;;;;;;7.51;72.28;99771.56;5054553;28;20079;-86
2021/03/09 13:11:00;;;;;;;20.20;14.07;;;;;;;7.55;72.36;99778.34;5036012;28;20068;-87
2021/03/09 13:13:26;;;;;;;24.70;15.82;;;;;;;7.59;72.74;99774.69;5036812;28;20491;-88
2021/03/09 13:15:52;;;;;;;22.83;15.73;;;;;;;7.63;72.42;99770.16;5036172;28;20048;-89
2021/03/09 13:18:19;;;;;;;18.75;13.13;;;;;;;7.68;72.73;99768.19;5036886;28;20139;-87
2021/03/09 13:20:45;;;;;;;25.67;15.10;;;;;;;7.73;72.43;99773.25;5031506;28;20046;-87
2021/03/09 13:23:11;;;;;;;20.40;14.73;;;;;;;7.77;72.38;99770.41;5017229;28;20512;-87
2021/03/09 13:25:38;;;;;;;24.60;16.30;;;;;;;7.80;72.30;99766.78;5016860;28;20051;-87
2021/03/09 13:28:05;;;;;;;21.77;13.85;;;;;;;7.86;72.33;99771.75;5016966;28;20499;-87
2021/03/09 13:30:31;;;;;;;21.52;13.73;;;;;;;7.89;72.23;99771.59;5034427;28;20132;-87
2021/03/09 13:32:57;;;;;;;20.60;14.30;;;;;;;7.94;72.68;99774.88;5016695;28;20049;-87
2021/03/09 13:35:24;;;;;;;21.55;14.23;;;;;;;8.01;72.54;99777.22;5016866;28;20160;-87
2021/03/09 13:37:50;;;;;;;19.15;13.43;;;;;;;8.06;72.16;99777.84;5016274;28;20492;-90
2021/03/09 13:40:17;;;;;;;20.58;14.30;;;;;;;8.10;72.43;99781.19;5015736;28;20055;-90
2021/03/09 13:42:43;;;;;;;18.95;12.20;;;;;;;8.14;71.86;99786.22;5016108;28;20055;-90
2021/03/09 13:45:12;;;;;;;20.52;13.35;;;;;;;8.16;72.21;99789.63;5016310;28;20060;-90
2021/03/09 13:47:39;;;;;;;19.08;12.77;;;;;;;8.22;72.19;99793.72;5016190;28;20049;-90
2021/03/09 13:52:34;;;;;;;21.05;13.13;;;;;;;8.28;72.24;99787.34;4973237;28;20513;-87
2021/03/09 13:55:22;;;;;;;22.35;13.98;;;;;;;8.28;72.03;99789.94;4957432;28;20505;-87
2021/03/09 13:57:56;;;;;;;20.95;14.07;;;;;;;8.35;71.90;99792.19;4958221;28;20130;-87
2021/03/09 14:00:23;;;;;;;24.42;13.95;;;;;;;8.38;71.82;99793.88;4957338;28;20130;-87
2021/03/09 14:02:56;;;;;;;21.75;14.40;;;;;;;8.40;72.15;99786.75;4957845;28;20485;-87
2021/03/09 14:05:24;;;;;;;20.02;13.07;;;;;;;8.45;72.10;99783.94;4957673;28;20051;-87
2021/03/09 14:07:51;;;;;;;23.65;14.65;;;;;;;8.48;71.88;99789.00;4957236;28;20047;-87
2021/03/09 14:10:17;;;;;;;21.33;14.60;;;;;;;8.51;71.87;99791.50;4957019;28;20049;-87
2021/03/09 14:12:43;;;;;;;24.52;14.65;;;;;;;8.54;71.91;99790.53;4959952;28;20051;-88
2021/03/09 14:15:12;;;;;;;20.67;14.10;;;;;;;8.54;71.81;99794.00;4961304;28;20061;-87
2021/03/09 14:17:39;;;;;;;21.40;14.00;;;;;;;8.58;71.75;99789.44;4960953;28;20066;-87
2021/03/09 14:20:08;;;;;;;28.25;15.93;;;;;;;8.60;71.55;99790.25;4976366;28;20482;-87
2021/03/09 14:22:34;;;;;;;18.90;13.00;;;;;;;8.63;71.90;99791.88;4978534;28;20061;-87
2021/03/09 14:25:00;;;;;;;21.65;14.30;;;;;;;8.63;71.53;99790.06;4978228;28;20082;-87
2021/03/09 14:27:35;;;;;;;19.40;13.32;;;;;;;8.63;71.26;99789.25;4962264;28;20520;-87
2021/03/09 14:30:04;;;;;;;19.85;13.45;;;;;;;8.62;71.25;99788.38;4978260;28;20492;-87
2021/03/09 14:32:31;;;;;;;19.73;12.77;;;;;;;8.62;71.44;99793.63;4978352;28;20074;-87
2021/03/09 14:34:57;;;;;;;21.70;13.35;;;;;;;8.62;71.28;99787.53;4960933;28;20051;-87
2021/03/09 14:37:25;;;;;;;60.35;16.42;;;;;;;8.62;71.37;99790.13;4960982;28;20062;-87
2021/03/09 14:39:54;;;;;;;37.50;16.13;;;;;;;8.59;71.23;99792.00;4960111;28;20078;-87
2021/03/09 14:42:21;;;;;;;168.85;19.23;;;;;;;8.58;70.90;99798.19;4977784;28;20047;-87
2021/03/09 14:44:47;;;;;;;26.40;15.10;;;;;;;8.58;71.05;99794.69;4960482;28;20047;-87
2021/03/09 14:47:13;;;;;;;81.25;16.13;;;;;;;8.55;71.06;99797.47;4978154;28;20050;-88
2021/03/09 14:49:41;;;;;;;81.03;15.02;;;;;;;8.54;71.39;99807.13;4960610;28;20059;-87
2021/03/09 14:52:09;;;;;;;84.03;16.05;;;;;;;8.52;71.41;99803.69;4977886;28;20075;-87
2021/03/09 14:54:37;;;;;;;54.55;16.63;;;;;;;8.50;71.12;99800.28;4960597;28;20058;-87
2021/03/09 14:57:06;;;;;;;130.23;16.98;;;;;;;8.50;71.16;99812.53;4977911;28;20051;-87
2021/03/09 14:59:32;;;;;;;98.00;16.77;;;;;;;8.48;71.38;99807.38;4959890;28;20047;-87
2021/03/09 15:01:58;;;;;;;22.50;15.57;;;;;;;8.46;71.54;99804.81;4960210;28;20394;-86
2021/03/09 15:04:24;;;;;;;30.73;14.80;;;;;;;8.46;71.28;99802.19;4977156;28;20556;-86
2021/03/09 15:06:51;;;;;;;118.60;18.83;;;;;;;8.47;71.64;99808.31;4960605;28;20398;-86
2021/03/09 15:09:17;;;;;;;98.90;15.98;;;;;;;8.44;71.38;99806.69;4960577;28;20138;-86
2021/03/09 15:11:43;;;;;;;97.40;15.90;;;;;;;8.43;71.37;99807.59;4960481;28;20055;-87
2021/03/09 15:14:09;;;;;;;67.72;15.52;;;;;;;8.42;71.45;99811.16;4960122;28;20046;-86
2021/03/09 15:16:35;;;;;;;42.47;14.77;;;;;;;8.42;71.36;99800.66;4960495;28;20485;-86
2021/03/09 15:19:02;;;;;;;64.90;16.40;;;;;;;8.42;71.48;99805.06;4961138;28;20047;-86
2021/03/09 15:21:28;;;;;;;24.70;14.52;;;;;;;8.41;71.44;99804.19;4959934;28;20050;-86
2021/03/09 15:23:54;;;;;;;24.13;12.95;;;;;;;8.40;71.36;99807.75;4958850;28;20573;-86
2021/03/09 15:26:21;;;;;;;22.48;14.48;;;;;;;8.41;71.47;99808.59;4960492;28;20051;-86
2021/03/09 15:28:47;;;;;;;17.50;12.95;;;;;;;8.39;71.63;99813.06;4959842;28;20047;-86
2021/03/09 15:31:13;;;;;;;18.05;13.73;;;;;;;8.40;71.70;99807.75;4959618;28;20047;-86
2021/03/09 15:33:39;;;;;;;19.42;12.70;;;;;;;8.40;71.42;99810.38;4977239;28;20073;-87
2021/03/09 15:36:05;;;;;;;16.83;13.07;;;;;;;8.39;71.57;99810.44;4977083;28;20062;-87
2021/03/09 15:38:32;;;;;;;19.15;13.70;;;;;;;8.39;71.54;99816.53;4977108;28;20054;-86
2021/03/09 15:40:59;;;;;;;19.17;13.45;;;;;;;8.37;71.44;99815.75;4976334;28;20536;-86
2021/03/09 15:43:26;;;;;;;16.58;12.68;;;;;;;8.38;71.54;99819.22;4976898;28;20050;-86
2021/03/09 15:45:52;;;;;;;17.65;12.93;;;;;;;8.37;71.71;99809.66;4959450;28;20055;-86
2021/03/09 15:48:19;;;;;;;17.20;13.13;;;;;;;8.37;71.46;99815.75;4959663;28;20054;-86
2021/03/09 15:50:45;;;;;;;16.63;12.50;;;;;;;8.37;71.41;99812.28;4959711;28;20050;-86
2021/03/09 15:53:11;;;;;;;18.75;13.02;;;;;;;8.35;71.54;99818.44;4977032;28;20055;-86
2021/03/09 15:55:38;;;;;;;16.70;12.88;;;;;;;8.35;71.22;99820.22;4959556;28;20050;-86
2021/03/09 15:58:05;;;;;;;18.45;13.82;;;;;;;8.35;71.19;99820.22;4976095;28;20058;-86
2021/03/09 16:00:32;;;;;;;17.75;12.68;;;;;;;8.33;71.09;99816.81;4976623;28;20129;-86
2021/03/09 16:02:59;;;;;;;17.00;12.85;;;;;;;8.30;71.24;99817.81;4976690;28;20058;-86
2021/03/09 16:05:27;;;;;;;17.80;13.48;;;;;;;8.30;71.24;99816.97;4976204;28;20054;-86
2021/03/09 16:07:54;;;;;;;18.92;13.75;;;;;;;8.27;71.31;99820.59;4976204;28;20051;-86
2021/03/09 16:10:20;;;;;;;17.23;12.93;;;;;;;8.25;71.19;99825.03;4976462;28;20050;-87
2021/03/09 16:12:47;;;;;;;18.35;13.18;;;;;;;8.24;71.12;99823.34;4976233;28;20482;-87
2021/03/09 16:15:14;;;;;;;16.02;12.13;;;;;;;8.24;71.35;99822.47;4959116;28;20047;-86
2021/03/09 16:17:41;;;;;;;16.77;13.07;;;;;;;8.25;71.36;99821.56;4958721;28;20053;-86
2021/03/09 16:20:09;;;;;;;16.55;12.82;;;;;;;8.26;71.34;99823.28;4956672;29;20461;-86
2021/03/09 16:22:35;;;;;;;19.42;14.02;;;;;;;8.26;71.46;99826.72;4957014;29;20055;-86
2021/03/09 16:25:02;;;;;;;19.67;13.98;;;;;;;8.25;71.58;99825.03;4939813;29;20102;-86
2021/03/09 16:27:30;;;;;;;22.67;15.10;;;;;;;8.23;71.48;99832.16;4957238;28;20055;-86
2021/03/09 16:29:56;;;;;;;21.30;14.20;;;;;;;8.23;71.11;99837.38;4958473;28;20051;-86
2021/03/09 16:32:23;;;;;;;18.83;13.70;;;;;;;8.21;71.20;99836.59;4959092;28;20047;-86
2021/03/09 16:34:49;;;;;;;20.83;14.30;;;;;;;8.18;71.05;99837.59;4975012;28;20058;-86
2021/03/09 16:37:16;;;;;;;20.33;14.30;;;;;;;8.15;71.06;99835.09;4958588;28;20054;-86
2021/03/09 16:39:42;;;;;;;20.65;14.18;;;;;;;8.13;71.52;99833.47;4958666;28;20054;-86
2021/03/09 16:42:09;;;;;;;21.17;14.50;;;;;;;8.10;71.21;99837.09;4990791;28;20054;-86
2021/03/09 16:44:35;;;;;;;21.92;15.40;;;;;;;8.11;71.22;99838.78;4975800;28;20051;-86
2021/03/09 16:47:02;;;;;;;23.10;15.98;;;;;;;8.10;71.49;99837.09;4958904;28;20050;-86
2021/03/09 16:49:29;;;;;;;22.02;15.07;;;;;;;8.09;71.13;99840.63;4958367;28;20065;-86
2021/03/09 16:51:57;;;;;;;25.63;17.10;;;;;;;8.08;71.12;99844.19;4975334;28;20047;-86
2021/03/09 16:54:23;;;;;;;26.38;16.77;;;;;;;8.06;70.98;99843.38;4975252;28;20057;-86
2021/03/09 16:56:50;;;;;;;22.75;14.82;;;;;;;8.04;71.12;99850.47;4975693;28;20062;-86
2021/03/09 16:59:16;;;;;;;23.75;15.43;;;;;;;8.01;71.12;99855.84;4975192;28;20153;-86
2021/03/09 17:01:44;;;;;;;21.80;15.63;;;;;;;7.99;71.22;99860.34;4975013;28;20050;-86
2021/03/09 17:04:10;;;;;;;25.90;16.42;;;;;;;7.95;71.02;99870.06;4975839;28;20050;-86
2021/03/09 17:06:36;;;;;;;26.90;16.90;;;;;;;7.92;70.83;99885.94;4975466;28;20055;-86
2021/03/09 17:09:04;;;;;;;24.95;16.70;;;;;;;7.89;71.12;99888.72;4958200;28;20058;-86
2021/03/09 17:11:30;;;;;;;26.35;17.00;;;;;;;7.85;71.00;99895.84;4957894;28;20093;-86
2021/03/09 17:13:56;;;;;;;28.58;17.88;;;;;;;7.82;71.01;99899.44;4975186;28;20513;-86
2021/03/09 17:16:22;;;;;;;25.40;17.20;;;;;;;7.79;71.15;99902.22;4990418;28;20055;-86
2021/03/09 17:18:48;;;;;;;27.40;17.23;;;;;;;7.76;71.27;99897.09;4975367;28;20058;-86
2021/03/09 17:21:15;;;;;;;33.88;18.52;;;;;;;7.75;71.31;99894.53;4974891;28;20123;-86